createdAt,value
2016-10-16T00:00:48.269Z,0
2016-10-16T00:02:01.826Z,0
2016-10-16T00:03:14.903Z,0
2016-10-16T00:04:28.495Z,0
2016-10-16T00:05:42.192Z,0
2016-10-16T00:06:56.165Z,0
2016-10-16T00:08:09.836Z,0
2016-10-16T00:09:23.485Z,0
2016-10-16T00:10:37.136Z,0
2016-10-16T00:11:50.145Z,0
2016-10-16T00:13:03.578Z,0
2016-10-16T00:14:17.301Z,0
2016-10-16T00:15:30.931Z,0
2016-10-16T00:16:44.535Z,0
2016-10-16T00:17:57.690Z,0
2016-10-16T00:19:11.324Z,0
2016-10-16T00:20:24.447Z,0
2016-10-16T00:21:37.507Z,0
2016-10-16T00:22:50.605Z,0
2016-10-16T00:24:04.233Z,0
2016-10-16T00:25:17.863Z,0
2016-10-16T00:26:31.670Z,0
2016-10-16T00:27:44.755Z,0
2016-10-16T00:28:57.875Z,0
2016-10-16T00:30:11.485Z,0
2016-10-16T00:31:25.056Z,0
2016-10-16T00:32:38.191Z,0
2016-10-16T00:33:51.810Z,0
2016-10-16T00:35:05.440Z,0
2016-10-16T00:36:19.077Z,0
2016-10-16T00:37:32.118Z,0
2016-10-16T00:38:45.747Z,0
2016-10-16T00:39:59.455Z,0
2016-10-16T00:41:13.067Z,0
2016-10-16T00:42:26.696Z,0
2016-10-16T00:43:39.773Z,0
2016-10-16T00:45:19.049Z,0
2016-10-16T00:46:32.533Z,0
2016-10-16T00:47:45.522Z,0
2016-10-16T00:48:58.688Z,0
2016-10-16T00:50:12.180Z,0
2016-10-16T00:51:25.735Z,0
2016-10-16T00:52:39.259Z,0
2016-10-16T00:53:53.010Z,0
2016-10-16T00:55:06.538Z,0
2016-10-16T00:56:19.548Z,0
2016-10-16T00:57:32.017Z,0
2016-10-16T00:58:45.467Z,0
2016-10-16T00:59:58.929Z,0
2016-10-16T01:01:11.935Z,0
2016-10-16T01:02:25.365Z,0
2016-10-16T01:03:38.839Z,0
2016-10-16T01:04:51.883Z,0
2016-10-16T01:06:04.893Z,0
2016-10-16T01:07:18.198Z,0
2016-10-16T01:08:31.690Z,0
2016-10-16T01:09:44.740Z,0
2016-10-16T01:10:57.747Z,0
2016-10-16T01:12:11.309Z,0
2016-10-16T01:13:23.776Z,0
2016-10-16T01:14:37.344Z,0
2016-10-16T01:15:50.408Z,0
2016-10-16T01:17:03.471Z,0
2016-10-16T01:18:17.131Z,0
2016-10-16T01:19:30.784Z,0
2016-10-16T01:20:44.416Z,0
2016-10-16T01:21:57.986Z,0
2016-10-16T01:23:11.642Z,0
2016-10-16T01:24:24.723Z,0
2016-10-16T01:25:38.274Z,0
2016-10-16T01:26:52.149Z,0
2016-10-16T01:28:05.802Z,0
2016-10-16T01:29:18.934Z,0
2016-10-16T01:30:32.612Z,0
2016-10-16T01:31:45.715Z,0
2016-10-16T01:32:59.418Z,0
2016-10-16T01:34:12.763Z,0
2016-10-16T01:35:26.344Z,0
2016-10-16T01:36:39.393Z,0
2016-10-16T01:37:52.756Z,0
2016-10-16T01:39:06.431Z,0
2016-10-16T01:40:20.133Z,0
2016-10-16T01:41:33.221Z,0
2016-10-16T01:42:46.465Z,0
2016-10-16T01:43:59.027Z,0
2016-10-16T01:45:12.690Z,0
2016-10-16T01:46:26.343Z,0
2016-10-16T01:47:39.984Z,0
2016-10-16T01:48:53.617Z,0
2016-10-16T01:50:07.267Z,0
2016-10-16T01:51:20.351Z,0
2016-10-16T01:52:34.016Z,0
2016-10-16T01:53:47.184Z,0
2016-10-16T01:55:00.255Z,0
2016-10-16T01:56:13.952Z,0
2016-10-16T01:57:27.540Z,0
2016-10-16T01:58:40.114Z,0
2016-10-16T01:59:53.319Z,0
2016-10-16T02:01:06.930Z,0
2016-10-16T02:02:20.610Z,0
2016-10-16T02:03:34.171Z,0
2016-10-16T02:04:47.234Z,0
2016-10-16T02:06:00.965Z,0
2016-10-16T02:07:14.603Z,0
2016-10-16T02:08:27.752Z,0
2016-10-16T02:09:40.862Z,0
2016-10-16T02:10:54.509Z,0
2016-10-16T02:12:08.118Z,0
2016-10-16T02:13:21.216Z,0
2016-10-16T02:14:34.334Z,0
2016-10-16T02:15:48.377Z,0
2016-10-16T02:17:02.061Z,0
2016-10-16T02:18:15.156Z,0
2016-10-16T02:19:28.262Z,0
2016-10-16T02:20:41.906Z,0
2016-10-16T02:21:55.569Z,0
2016-10-16T02:23:09.149Z,0
2016-10-16T02:24:22.784Z,0
2016-10-16T02:25:36.463Z,0
2016-10-16T02:26:49.559Z,0
2016-10-16T02:28:03.229Z,0
2016-10-16T02:29:16.386Z,0
2016-10-16T02:30:30.001Z,0
2016-10-16T02:31:43.851Z,0
2016-10-16T02:32:56.427Z,0
2016-10-16T02:34:10.034Z,0
2016-10-16T02:35:23.688Z,0
2016-10-16T02:36:37.416Z,0
2016-10-16T02:37:51.027Z,0
2016-10-16T02:39:04.621Z,0
2016-10-16T02:40:18.231Z,0
2016-10-16T02:41:31.330Z,0
2016-10-16T02:42:44.954Z,0
2016-10-16T02:43:58.653Z,0
2016-10-16T02:45:11.728Z,0
2016-10-16T02:46:25.368Z,0
2016-10-16T02:47:38.996Z,0
2016-10-16T02:48:52.616Z,0
2016-10-16T02:50:06.208Z,0
2016-10-16T02:51:19.926Z,0
2016-10-16T02:52:33.565Z,0
2016-10-16T02:53:46.777Z,0
2016-10-16T02:54:59.920Z,0
2016-10-16T02:56:12.963Z,0
2016-10-16T02:57:26.565Z,0
2016-10-16T02:58:39.170Z,0
2016-10-16T02:59:52.766Z,0
2016-10-16T03:01:06.427Z,0
2016-10-16T03:02:19.667Z,0
2016-10-16T03:03:33.089Z,0
2016-10-16T03:04:46.749Z,0
2016-10-16T03:06:00.425Z,0
2016-10-16T03:07:14.053Z,0
2016-10-16T03:08:27.708Z,0
2016-10-16T03:09:40.764Z,0
2016-10-16T03:10:54.431Z,0
2016-10-16T03:12:07.603Z,0
2016-10-16T03:13:21.276Z,0
2016-10-16T03:14:34.888Z,0
2016-10-16T03:15:48.564Z,0
2016-10-16T03:17:02.191Z,0
2016-10-16T03:18:15.809Z,0
2016-10-16T03:19:29.418Z,0
2016-10-16T03:20:43.068Z,0
2016-10-16T03:21:56.285Z,0
2016-10-16T03:23:09.905Z,0
2016-10-16T03:24:23.607Z,0
2016-10-16T03:25:37.252Z,0
2016-10-16T03:26:50.969Z,0
2016-10-16T03:28:04.046Z,0
2016-10-16T03:29:17.668Z,0
2016-10-16T03:30:31.300Z,0
2016-10-16T03:31:44.407Z,0
2016-10-16T03:32:58.075Z,0
2016-10-16T03:34:11.704Z,0
2016-10-16T03:35:25.085Z,0
2016-10-16T03:36:38.717Z,0
2016-10-16T03:37:52.290Z,0
2016-10-16T03:39:05.404Z,0
2016-10-16T03:40:19.017Z,0
2016-10-16T03:41:32.696Z,0
2016-10-16T03:42:45.756Z,0
2016-10-16T03:43:58.272Z,0
2016-10-16T03:45:11.895Z,0
2016-10-16T03:46:25.757Z,0
2016-10-16T03:47:39.415Z,0
2016-10-16T03:48:53.291Z,0
2016-10-16T03:50:06.884Z,0
2016-10-16T03:51:20.617Z,0
2016-10-16T03:52:33.718Z,0
2016-10-16T03:53:47.424Z,0
2016-10-16T03:55:00.534Z,0
2016-10-16T03:56:14.133Z,0
2016-10-16T03:57:27.764Z,0
2016-10-16T03:58:41.378Z,0
2016-10-16T03:59:54.926Z,0
2016-10-16T04:01:08.053Z,0
2016-10-16T04:02:21.416Z,0
2016-10-16T04:03:35.104Z,0
2016-10-16T04:04:48.730Z,0
2016-10-16T04:06:02.411Z,0
2016-10-16T04:07:15.995Z,0
2016-10-16T04:08:29.567Z,0
2016-10-16T04:09:43.290Z,0
2016-10-16T04:10:56.864Z,0
2016-10-16T04:12:10.771Z,0
2016-10-16T04:13:24.458Z,0
2016-10-16T04:14:38.078Z,0
2016-10-16T04:15:51.688Z,0
2016-10-16T04:17:05.417Z,0
2016-10-16T04:18:19.107Z,0
2016-10-16T04:19:31.947Z,0
2016-10-16T04:20:45.576Z,0
2016-10-16T04:21:59.370Z,0
2016-10-16T04:23:12.439Z,0
2016-10-16T04:24:26.305Z,0
2016-10-16T04:25:39.966Z,0
2016-10-16T04:26:53.562Z,0
2016-10-16T04:28:07.166Z,0
2016-10-16T04:29:20.773Z,0
2016-10-16T04:30:34.388Z,0
2016-10-16T04:31:48.015Z,0
2016-10-16T04:33:01.142Z,0
2016-10-16T04:34:14.229Z,0
2016-10-16T04:35:27.318Z,0
2016-10-16T04:36:40.394Z,0
2016-10-16T04:37:54.034Z,0
2016-10-16T04:39:07.636Z,0
2016-10-16T04:40:20.742Z,0
2016-10-16T04:41:33.910Z,0
2016-10-16T04:42:47.572Z,0
2016-10-16T04:44:01.169Z,0
2016-10-16T04:45:14.265Z,0
2016-10-16T04:46:27.835Z,0
2016-10-16T04:47:40.390Z,0
2016-10-16T04:48:53.440Z,0
2016-10-16T04:50:06.484Z,0
2016-10-16T04:51:20.266Z,0
2016-10-16T04:52:33.905Z,0
2016-10-16T04:53:47.595Z,0
2016-10-16T04:55:01.275Z,0
2016-10-16T04:56:14.914Z,0
2016-10-16T04:57:28.531Z,0
2016-10-16T04:58:41.677Z,0
2016-10-16T04:59:55.229Z,0
2016-10-16T05:01:08.888Z,0
2016-10-16T05:02:22.527Z,0
2016-10-16T05:03:36.152Z,0
2016-10-16T05:04:49.768Z,0
2016-10-16T05:06:03.094Z,0
2016-10-16T05:07:15.651Z,0
2016-10-16T05:08:29.358Z,0
2016-10-16T05:09:43.049Z,0
2016-10-16T05:10:56.706Z,0
2016-10-16T05:12:10.335Z,0
2016-10-16T05:13:24.002Z,0
2016-10-16T05:14:37.644Z,0
2016-10-16T05:15:51.304Z,0
2016-10-16T05:17:04.923Z,0
2016-10-16T05:18:18.011Z,0
2016-10-16T05:19:31.668Z,0
2016-10-16T05:20:44.814Z,0
2016-10-16T05:21:58.427Z,0
2016-10-16T05:23:12.893Z,0
2016-10-16T05:24:26.572Z,0
2016-10-16T05:25:40.254Z,0
2016-10-16T05:26:53.903Z,0
2016-10-16T05:28:07.154Z,0
2016-10-16T05:29:20.349Z,0
2016-10-16T05:30:34.021Z,0
2016-10-16T05:31:47.147Z,0
2016-10-16T05:33:00.776Z,0
2016-10-16T05:34:14.430Z,0
2016-10-16T05:35:27.543Z,0
2016-10-16T05:36:40.639Z,0
2016-10-16T05:37:54.250Z,0
2016-10-16T05:39:07.963Z,0
2016-10-16T05:40:21.649Z,0
2016-10-16T05:41:35.213Z,0
2016-10-16T05:42:48.841Z,0
2016-10-16T05:44:02.469Z,0
2016-10-16T05:45:16.036Z,0
2016-10-16T05:46:29.603Z,0
2016-10-16T05:47:43.241Z,0
2016-10-16T05:48:56.891Z,0
2016-10-16T05:50:10.564Z,0
2016-10-16T05:51:24.185Z,0
2016-10-16T05:52:38.035Z,0
2016-10-16T05:53:51.710Z,0
2016-10-16T05:55:05.383Z,0
2016-10-16T05:56:18.446Z,0
2016-10-16T05:57:32.176Z,0
2016-10-16T05:58:45.551Z,0
2016-10-16T05:59:58.665Z,0
2016-10-16T06:01:12.286Z,0
2016-10-16T06:02:25.429Z,0
2016-10-16T06:03:38.464Z,0
2016-10-16T06:04:51.559Z,0
2016-10-16T06:06:05.172Z,0
2016-10-16T06:07:18.240Z,0
2016-10-16T06:08:31.827Z,0
2016-10-16T06:09:45.515Z,0
2016-10-16T06:10:59.135Z,0
2016-10-16T06:12:12.778Z,0
2016-10-16T06:13:25.933Z,0
2016-10-16T06:14:39.563Z,0
2016-10-16T06:15:53.341Z,0
2016-10-16T06:17:06.493Z,0
2016-10-16T06:18:20.173Z,0
2016-10-16T06:19:33.796Z,0
2016-10-16T06:20:47.454Z,0
2016-10-16T06:22:00.532Z,0
2016-10-16T06:23:14.203Z,0
2016-10-16T06:24:27.813Z,0
2016-10-16T06:25:41.483Z,0
2016-10-16T06:26:55.104Z,0
2016-10-16T06:28:08.771Z,0
2016-10-16T06:29:22.446Z,0
2016-10-16T06:30:36.037Z,0
2016-10-16T06:31:49.661Z,0
2016-10-16T06:33:03.306Z,0
2016-10-16T06:34:17.136Z,0
2016-10-16T06:35:30.226Z,0
2016-10-16T06:36:44.059Z,0
2016-10-16T06:37:57.806Z,0
2016-10-16T06:39:11.455Z,0
2016-10-16T06:40:25.087Z,0
2016-10-16T06:41:38.164Z,0
2016-10-16T06:42:51.802Z,0
2016-10-16T06:44:05.402Z,0
2016-10-16T06:45:18.820Z,0
2016-10-16T06:46:32.460Z,0
2016-10-16T06:47:46.143Z,0
2016-10-16T06:48:59.313Z,0
2016-10-16T06:50:12.698Z,0
2016-10-16T06:51:25.387Z,0
2016-10-16T06:52:38.169Z,0
2016-10-16T06:53:51.782Z,0
2016-10-16T06:55:04.330Z,0
2016-10-16T06:56:17.447Z,0
2016-10-16T06:57:30.563Z,0
2016-10-16T06:58:43.581Z,0
2016-10-16T06:59:56.671Z,0
2016-10-16T07:01:10.327Z,0
2016-10-16T07:02:24.079Z,0
2016-10-16T07:03:37.682Z,0
2016-10-16T07:04:51.357Z,0
2016-10-16T07:06:04.445Z,0
2016-10-16T07:07:18.114Z,0
2016-10-16T07:08:31.712Z,0
2016-10-16T07:09:45.391Z,0
2016-10-16T07:10:59.005Z,0
2016-10-16T07:12:12.897Z,0
2016-10-16T07:13:26.625Z,0
2016-10-16T07:14:40.239Z,0
2016-10-16T07:15:53.523Z,0
2016-10-16T07:17:07.177Z,0
2016-10-16T07:18:21.460Z,0
2016-10-16T07:19:35.037Z,0
2016-10-16T07:20:48.620Z,0
2016-10-16T07:22:02.285Z,0
2016-10-16T07:23:15.487Z,0
2016-10-16T07:24:29.221Z,0
2016-10-16T07:25:42.848Z,0
2016-10-16T07:26:56.657Z,0
2016-10-16T07:28:09.902Z,0
2016-10-16T07:29:23.643Z,0
2016-10-16T07:30:37.232Z,0
2016-10-16T07:31:50.792Z,0
2016-10-16T07:33:04.431Z,0
2016-10-16T07:34:18.111Z,0
2016-10-16T07:35:31.763Z,0
2016-10-16T07:36:44.869Z,0
2016-10-16T07:37:58.505Z,0
2016-10-16T07:39:11.615Z,0
2016-10-16T07:40:25.352Z,0
2016-10-16T07:41:39.044Z,0
2016-10-16T07:42:52.727Z,0
2016-10-16T07:44:05.768Z,0
2016-10-16T07:45:18.897Z,0
2016-10-16T07:46:32.624Z,0
2016-10-16T07:47:46.294Z,0
2016-10-16T07:48:59.873Z,0
2016-10-16T07:50:12.913Z,0
2016-10-16T07:51:26.205Z,0
2016-10-16T07:52:39.454Z,0
2016-10-16T07:53:53.037Z,0
2016-10-16T07:55:06.633Z,0
2016-10-16T07:56:20.380Z,0
2016-10-16T07:57:34.012Z,0
2016-10-16T07:58:47.623Z,0
2016-10-16T08:00:01.214Z,0
2016-10-16T08:01:14.802Z,0
2016-10-16T08:02:27.864Z,0
2016-10-16T08:03:40.957Z,0
2016-10-16T08:04:54.587Z,0
2016-10-16T08:06:08.394Z,0
2016-10-16T08:07:21.511Z,0
2016-10-16T08:08:35.106Z,0
2016-10-16T08:09:48.744Z,0
2016-10-16T08:11:02.379Z,0
2016-10-16T08:12:14.415Z,0
2016-10-16T08:13:28.145Z,0
2016-10-16T08:14:41.999Z,0
2016-10-16T08:15:55.629Z,0
2016-10-16T08:17:08.725Z,0
2016-10-16T08:18:21.888Z,0
2016-10-16T08:19:35.555Z,0
2016-10-16T08:20:49.238Z,0
2016-10-16T08:22:02.887Z,0
2016-10-16T08:23:16.550Z,0
2016-10-16T08:24:30.161Z,0
2016-10-16T08:25:43.802Z,0
2016-10-16T08:26:57.390Z,0
2016-10-16T08:28:10.494Z,0
2016-10-16T08:29:24.218Z,0
2016-10-16T08:30:37.861Z,0
2016-10-16T08:31:51.524Z,0
2016-10-16T08:33:05.160Z,0
2016-10-16T08:34:18.750Z,0
2016-10-16T08:35:32.460Z,0
2016-10-16T08:36:46.090Z,0
2016-10-16T08:37:59.162Z,0
2016-10-16T08:39:12.895Z,0
2016-10-16T08:40:26.657Z,0
2016-10-16T08:41:39.206Z,0
2016-10-16T08:42:52.847Z,0
2016-10-16T08:44:06.400Z,0
2016-10-16T08:45:19.992Z,0
2016-10-16T08:46:33.622Z,0
2016-10-16T08:47:47.160Z,0
2016-10-16T08:49:00.831Z,0
2016-10-16T08:50:14.521Z,0
2016-10-16T08:51:28.201Z,0
2016-10-16T08:52:41.835Z,0
2016-10-16T08:53:54.954Z,0
2016-10-16T08:55:08.038Z,0
2016-10-16T08:56:21.092Z,0
2016-10-16T08:57:34.713Z,0
2016-10-16T08:58:48.351Z,0
2016-10-16T09:00:02.022Z,0
2016-10-16T09:01:15.615Z,0
2016-10-16T09:02:29.251Z,0
2016-10-16T09:03:42.880Z,0
2016-10-16T09:04:55.647Z,0
2016-10-16T09:06:09.320Z,5
2016-10-16T09:07:22.439Z,5
2016-10-16T09:08:36.140Z,5
2016-10-16T09:09:49.844Z,5
2016-10-16T09:11:03.506Z,5
2016-10-16T09:12:17.325Z,5
2016-10-16T09:13:30.964Z,5
2016-10-16T09:14:44.575Z,5
2016-10-16T09:15:57.669Z,5
2016-10-16T09:17:11.340Z,5
2016-10-16T09:18:24.467Z,5
2016-10-16T09:19:38.190Z,5
2016-10-16T09:20:51.538Z,5
2016-10-16T09:22:05.097Z,5
2016-10-16T09:23:18.756Z,5
2016-10-16T09:24:32.492Z,5
2016-10-16T09:25:45.622Z,5
2016-10-16T09:26:59.294Z,5
2016-10-16T09:28:12.921Z,5
2016-10-16T09:29:26.693Z,5
2016-10-16T09:30:39.564Z,5
2016-10-16T09:31:53.162Z,5
2016-10-16T09:33:06.846Z,5
2016-10-16T09:34:20.489Z,5
2016-10-16T09:35:33.583Z,5
2016-10-16T09:36:47.345Z,5
2016-10-16T09:38:00.993Z,5
2016-10-16T09:39:14.839Z,5
2016-10-16T09:40:27.886Z,5
2016-10-16T09:41:40.991Z,5
2016-10-16T09:42:54.638Z,5
2016-10-16T09:44:08.228Z,5
2016-10-16T09:45:21.657Z,10
2016-10-16T09:46:34.450Z,5
2016-10-16T09:47:48.139Z,10
2016-10-16T09:49:01.813Z,10
2016-10-16T09:50:15.082Z,10
2016-10-16T09:51:28.727Z,10
2016-10-16T09:52:42.271Z,10
2016-10-16T09:53:55.928Z,10
2016-10-16T09:55:09.582Z,10
2016-10-16T09:56:23.195Z,10
2016-10-16T09:57:36.864Z,10
2016-10-16T09:58:50.502Z,10
2016-10-16T10:00:04.104Z,10
2016-10-16T10:01:17.688Z,10
2016-10-16T10:02:31.253Z,10
2016-10-16T10:03:44.421Z,10
2016-10-16T10:04:58.118Z,10
2016-10-16T10:06:11.383Z,10
2016-10-16T10:07:25.068Z,10
2016-10-16T10:08:38.812Z,10
2016-10-16T10:09:52.024Z,10
2016-10-16T10:11:05.566Z,10
2016-10-16T10:12:19.234Z,10
2016-10-16T10:13:32.933Z,10
2016-10-16T10:14:45.517Z,10
2016-10-16T10:15:59.155Z,10
2016-10-16T10:17:11.684Z,10
2016-10-16T10:18:25.351Z,10
2016-10-16T10:19:38.906Z,10
2016-10-16T10:20:52.029Z,10
2016-10-16T10:22:05.623Z,10
2016-10-16T10:23:19.244Z,10
2016-10-16T10:24:32.858Z,10
2016-10-16T10:25:46.500Z,10
2016-10-16T10:27:00.142Z,10
2016-10-16T10:28:13.697Z,10
2016-10-16T10:29:27.325Z,10
2016-10-16T10:30:40.484Z,10
2016-10-16T10:31:54.144Z,10
2016-10-16T10:33:07.311Z,10
2016-10-16T10:34:20.903Z,10
2016-10-16T10:35:34.080Z,10
2016-10-16T10:36:47.735Z,10
2016-10-16T10:38:01.371Z,15
2016-10-16T10:39:15.029Z,15
2016-10-16T10:40:28.696Z,15
2016-10-16T10:41:42.079Z,15
2016-10-16T10:42:55.680Z,15
2016-10-16T10:44:08.794Z,15
2016-10-16T10:45:21.903Z,15
2016-10-16T10:46:35.592Z,15
2016-10-16T10:47:49.255Z,15
2016-10-16T10:49:02.900Z,20
2016-10-16T10:50:16.551Z,20
2016-10-16T10:51:30.248Z,20
2016-10-16T10:52:43.820Z,20
2016-10-16T10:53:56.885Z,20
2016-10-16T10:55:10.031Z,20
2016-10-16T10:56:23.672Z,20
2016-10-16T10:57:37.329Z,20
2016-10-16T10:58:50.508Z,20
2016-10-16T11:00:04.136Z,20
2016-10-16T11:01:17.715Z,20
2016-10-16T11:02:31.345Z,20
2016-10-16T11:03:44.977Z,20
2016-10-16T11:04:58.643Z,20
2016-10-16T11:06:11.829Z,25
2016-10-16T11:07:25.017Z,25
2016-10-16T11:08:38.590Z,25
2016-10-16T11:09:52.239Z,25
2016-10-16T11:11:05.869Z,25
2016-10-16T11:12:19.465Z,30
2016-10-16T11:13:32.536Z,30
2016-10-16T11:14:46.107Z,25
2016-10-16T11:15:59.750Z,25
2016-10-16T11:17:12.845Z,25
2016-10-16T11:18:26.512Z,30
2016-10-16T11:19:40.715Z,30
2016-10-16T11:20:54.322Z,30
2016-10-16T11:22:07.971Z,30
2016-10-16T11:23:21.623Z,35
2016-10-16T11:24:35.273Z,35
2016-10-16T11:25:48.922Z,40
2016-10-16T11:27:01.461Z,40
2016-10-16T11:28:15.091Z,40
2016-10-16T11:29:28.755Z,45
2016-10-16T11:30:42.419Z,45
2016-10-16T11:31:55.581Z,50
2016-10-16T11:33:09.211Z,50
2016-10-16T11:34:22.347Z,50
2016-10-16T11:35:35.927Z,50
2016-10-16T11:36:49.567Z,55
2016-10-16T11:38:03.164Z,55
2016-10-16T11:39:16.838Z,60
2016-10-16T11:40:30.664Z,60
2016-10-16T11:41:44.282Z,65
2016-10-16T11:42:57.937Z,65
2016-10-16T11:44:11.052Z,70
2016-10-16T11:45:24.711Z,70
2016-10-16T11:46:38.300Z,70
2016-10-16T11:47:51.439Z,75
2016-10-16T11:49:05.046Z,75
2016-10-16T11:50:18.160Z,75
2016-10-16T11:51:31.254Z,75
2016-10-16T11:52:44.928Z,75
2016-10-16T11:53:58.578Z,75
2016-10-16T11:55:11.691Z,75
2016-10-16T11:56:25.364Z,85
2016-10-16T11:57:39.026Z,80
2016-10-16T11:58:52.766Z,80
2016-10-16T12:00:05.300Z,85
2016-10-16T12:01:18.983Z,80
2016-10-16T12:02:32.508Z,85
2016-10-16T12:03:46.355Z,80
2016-10-16T12:04:58.921Z,75
2016-10-16T12:06:12.561Z,80
2016-10-16T12:07:26.206Z,85
2016-10-16T12:08:39.385Z,90
2016-10-16T12:09:53.045Z,90
2016-10-16T12:11:06.145Z,95
2016-10-16T12:12:19.798Z,95
2016-10-16T12:13:33.450Z,95
2016-10-16T12:14:46.455Z,100
2016-10-16T12:16:00.097Z,100
2016-10-16T12:17:13.788Z,100
2016-10-16T12:18:27.431Z,100
2016-10-16T12:19:41.110Z,100
2016-10-16T12:20:54.825Z,105
2016-10-16T12:22:08.473Z,105
2016-10-16T12:23:22.095Z,105
2016-10-16T12:24:35.726Z,105
2016-10-16T12:25:49.382Z,105
2016-10-16T12:27:03.035Z,110
2016-10-16T12:28:15.601Z,115
2016-10-16T12:29:29.222Z,110
2016-10-16T12:30:42.911Z,110
2016-10-16T12:31:56.774Z,110
2016-10-16T12:33:10.384Z,110
2016-10-16T12:34:24.098Z,110
2016-10-16T12:35:37.743Z,115
2016-10-16T12:36:50.911Z,115
2016-10-16T12:38:04.239Z,110
2016-10-16T12:39:17.516Z,120
2016-10-16T12:40:30.712Z,115
2016-10-16T12:41:44.409Z,120
2016-10-16T12:42:58.141Z,115
2016-10-16T12:44:11.787Z,120
2016-10-16T12:45:25.401Z,125
2016-10-16T12:46:39.041Z,130
2016-10-16T12:47:52.694Z,125
2016-10-16T12:49:05.811Z,130
2016-10-16T12:50:18.909Z,130
2016-10-16T12:51:32.542Z,135
2016-10-16T12:52:46.279Z,145
2016-10-16T12:53:59.917Z,145
2016-10-16T12:55:13.024Z,145
2016-10-16T12:56:26.565Z,130
2016-10-16T12:57:40.181Z,130
2016-10-16T12:58:53.768Z,120
2016-10-16T13:00:07.429Z,120
2016-10-16T13:01:20.160Z,130
2016-10-16T13:02:33.799Z,110
2016-10-16T13:03:47.465Z,115
2016-10-16T13:05:00.841Z,125
2016-10-16T13:06:14.004Z,115
2016-10-16T13:07:27.655Z,120
2016-10-16T13:08:41.266Z,130
2016-10-16T13:09:54.601Z,140
2016-10-16T13:11:08.200Z,130
2016-10-16T13:12:21.820Z,145
2016-10-16T13:13:35.539Z,140
2016-10-16T13:14:49.169Z,155
2016-10-16T13:16:02.889Z,160
2016-10-16T13:17:15.181Z,160
2016-10-16T13:18:28.371Z,165
2016-10-16T13:19:42.023Z,165
2016-10-16T13:20:55.137Z,150
2016-10-16T13:22:08.776Z,170
2016-10-16T13:23:21.883Z,170
2016-10-16T13:24:35.003Z,175
2016-10-16T13:25:48.081Z,170
2016-10-16T13:27:01.139Z,175
2016-10-16T13:28:14.739Z,175
2016-10-16T13:29:28.457Z,170
2016-10-16T13:30:42.088Z,175
2016-10-16T13:31:54.613Z,180
2016-10-16T13:33:07.205Z,180
2016-10-16T13:34:20.434Z,190
2016-10-16T13:35:33.526Z,200
2016-10-16T13:36:46.935Z,200
2016-10-16T13:38:00.571Z,200
2016-10-16T13:39:13.731Z,200
2016-10-16T13:40:27.374Z,205
2016-10-16T13:41:40.935Z,205
2016-10-16T13:42:54.564Z,210
2016-10-16T13:44:08.253Z,215
2016-10-16T13:45:21.859Z,215
2016-10-16T13:46:35.592Z,205
2016-10-16T13:47:49.208Z,215
2016-10-16T13:49:02.875Z,215
2016-10-16T13:50:16.547Z,215
2016-10-16T13:51:30.126Z,220
2016-10-16T13:52:43.738Z,220
2016-10-16T13:53:56.787Z,225
2016-10-16T13:55:10.462Z,225
2016-10-16T13:56:24.111Z,230
2016-10-16T13:57:37.288Z,235
2016-10-16T13:58:50.435Z,235
2016-10-16T14:00:03.605Z,245
2016-10-16T14:01:16.771Z,240
2016-10-16T14:02:30.053Z,245
2016-10-16T14:03:42.886Z,245
2016-10-16T14:04:56.695Z,250
2016-10-16T14:06:10.315Z,245
2016-10-16T14:07:24.033Z,245
2016-10-16T14:08:37.103Z,255
2016-10-16T14:09:50.732Z,260
2016-10-16T14:11:04.378Z,245
2016-10-16T14:12:18.043Z,265
2016-10-16T14:13:31.660Z,265
2016-10-16T14:14:45.357Z,270
2016-10-16T14:15:58.477Z,270
2016-10-16T14:17:12.178Z,270
2016-10-16T14:18:25.821Z,265
2016-10-16T14:19:38.873Z,275
2016-10-16T14:20:52.444Z,265
2016-10-16T14:22:06.112Z,255
2016-10-16T14:23:19.732Z,275
2016-10-16T14:24:33.559Z,280
2016-10-16T14:25:47.322Z,280
2016-10-16T14:27:00.952Z,280
2016-10-16T14:28:14.544Z,285
2016-10-16T14:29:28.188Z,285
2016-10-16T14:30:41.870Z,285
2016-10-16T14:31:55.468Z,285
2016-10-16T14:33:09.114Z,290
2016-10-16T14:34:22.181Z,285
2016-10-16T14:35:35.784Z,290
2016-10-16T14:36:49.519Z,290
2016-10-16T14:38:03.109Z,350
2016-10-16T14:39:16.759Z,330
2016-10-16T14:40:30.380Z,310
2016-10-16T14:41:43.507Z,350
2016-10-16T14:42:57.153Z,355
2016-10-16T14:44:10.221Z,350
2016-10-16T14:45:23.892Z,350
2016-10-16T14:46:36.951Z,350
2016-10-16T14:47:50.566Z,355
2016-10-16T14:49:04.235Z,355
2016-10-16T14:50:17.844Z,355
2016-10-16T14:51:47.677Z,355
2016-10-16T14:53:01.370Z,355
2016-10-16T14:54:15.072Z,355
2016-10-16T14:55:28.733Z,355
2016-10-16T14:56:42.429Z,360
2016-10-16T14:57:56.111Z,355
2016-10-16T14:59:09.733Z,355
2016-10-16T15:00:23.381Z,355
2016-10-16T15:01:36.464Z,350
2016-10-16T15:02:50.093Z,350
2016-10-16T15:04:03.802Z,355
2016-10-16T15:05:17.663Z,355
2016-10-16T15:06:31.339Z,355
2016-10-16T15:07:44.958Z,355
2016-10-16T15:08:58.604Z,355
2016-10-16T15:10:11.798Z,355
2016-10-16T15:11:25.505Z,360
2016-10-16T15:12:39.180Z,355
2016-10-16T15:13:52.777Z,350
2016-10-16T15:15:06.511Z,335
2016-10-16T15:16:20.145Z,355
2016-10-16T15:17:33.787Z,350
2016-10-16T15:18:47.588Z,355
2016-10-16T15:20:01.231Z,345
2016-10-16T15:21:14.538Z,295
2016-10-16T15:22:27.673Z,290
2016-10-16T15:23:41.055Z,300
2016-10-16T15:24:54.136Z,320
2016-10-16T15:26:07.773Z,335
2016-10-16T15:27:21.378Z,350
2016-10-16T15:28:35.027Z,355
2016-10-16T15:29:48.678Z,160
2016-10-16T15:31:02.392Z,105
2016-10-16T15:32:16.068Z,320
2016-10-16T15:33:29.738Z,290
2016-10-16T15:34:42.394Z,285
2016-10-16T15:35:56.043Z,275
2016-10-16T15:37:09.734Z,300
2016-10-16T15:38:22.845Z,280
2016-10-16T15:39:36.467Z,325
2016-10-16T15:40:49.144Z,320
2016-10-16T15:42:02.773Z,295
2016-10-16T15:43:16.360Z,235
2016-10-16T15:44:30.031Z,245
2016-10-16T15:45:43.655Z,270
2016-10-16T15:46:56.809Z,205
2016-10-16T15:48:10.635Z,190
2016-10-16T15:49:24.253Z,185
2016-10-16T15:50:37.914Z,205
2016-10-16T15:51:51.302Z,250
2016-10-16T15:53:04.920Z,285
2016-10-16T15:54:18.557Z,280
2016-10-16T15:55:31.709Z,330
2016-10-16T15:56:45.363Z,305
2016-10-16T15:57:59.015Z,310
2016-10-16T15:59:12.672Z,365
2016-10-16T16:00:26.351Z,350
2016-10-16T16:01:40.068Z,350
2016-10-16T16:02:53.955Z,365
2016-10-16T16:04:07.652Z,355
2016-10-16T16:05:21.303Z,340
2016-10-16T16:06:34.969Z,310
2016-10-16T16:07:48.611Z,265
2016-10-16T16:09:02.281Z,270
2016-10-16T16:10:15.692Z,305
2016-10-16T16:11:29.378Z,300
2016-10-16T16:12:43.051Z,300
2016-10-16T16:13:56.709Z,330
2016-10-16T16:15:10.388Z,295
2016-10-16T16:16:23.991Z,310
2016-10-16T16:17:37.571Z,325
2016-10-16T16:18:51.280Z,275
2016-10-16T16:20:04.972Z,245
2016-10-16T16:21:18.088Z,315
2016-10-16T16:22:31.713Z,290
2016-10-16T16:23:44.328Z,315
2016-10-16T16:24:57.992Z,300
2016-10-16T16:26:11.591Z,310
2016-10-16T16:27:25.264Z,320
2016-10-16T16:28:38.303Z,325
2016-10-16T16:29:52.167Z,320
2016-10-16T16:31:05.739Z,335
2016-10-16T16:32:19.378Z,325
2016-10-16T16:33:33.044Z,350
2016-10-16T16:34:46.186Z,320
2016-10-16T16:35:59.889Z,305
2016-10-16T16:37:13.539Z,255
2016-10-16T16:38:27.160Z,255
2016-10-16T16:39:40.797Z,275
2016-10-16T16:40:54.441Z,260
2016-10-16T16:42:08.128Z,210
2016-10-16T16:43:23.148Z,205
2016-10-16T16:44:36.808Z,240
2016-10-16T16:45:50.427Z,230
2016-10-16T16:47:04.047Z,270
2016-10-16T16:48:17.879Z,285
2016-10-16T16:49:31.020Z,270
2016-10-16T16:50:44.856Z,275
2016-10-16T16:51:58.502Z,250
2016-10-16T16:53:12.114Z,255
2016-10-16T16:54:25.798Z,255
2016-10-16T16:55:39.509Z,270
2016-10-16T16:56:53.171Z,245
2016-10-16T16:58:06.870Z,225
2016-10-16T16:59:20.547Z,225
2016-10-16T17:00:34.156Z,200
2016-10-16T17:01:47.935Z,220
2016-10-16T17:03:01.132Z,225
2016-10-16T17:04:13.757Z,225
2016-10-16T17:05:27.394Z,235
2016-10-16T17:06:40.562Z,255
2016-10-16T17:07:54.262Z,250
2016-10-16T17:09:07.938Z,230
2016-10-16T17:10:20.995Z,220
2016-10-16T17:11:34.160Z,215
2016-10-16T17:12:47.679Z,220
2016-10-16T17:14:01.301Z,220
2016-10-16T17:15:14.962Z,220
2016-10-16T17:16:28.231Z,200
2016-10-16T17:17:41.602Z,200
2016-10-16T17:18:55.263Z,205
2016-10-16T17:20:08.929Z,200
2016-10-16T17:21:22.508Z,180
2016-10-16T17:22:35.594Z,200
2016-10-16T17:23:49.246Z,215
2016-10-16T17:25:02.837Z,210
2016-10-16T17:26:16.468Z,190
2016-10-16T17:27:30.108Z,205
2016-10-16T17:28:43.714Z,175
2016-10-16T17:29:57.462Z,165
2016-10-16T17:31:11.113Z,175
2016-10-16T17:32:24.787Z,175
2016-10-16T17:33:37.949Z,170
2016-10-16T17:34:51.649Z,175
2016-10-16T17:36:05.305Z,195
2016-10-16T17:37:18.895Z,180
2016-10-16T17:38:32.536Z,165